sensor_id;sensor_type;location;lat;lon;timestamp;P1;durP1;ratioP1;P2;durP2;ratioP2
74957;SDS011;63741;42.624;26.276;2023-05-10T00:00:39;13.15;;;5.65;;
74957;SDS011;63741;42.624;26.276;2023-05-10T00:03:06;8.13;;;4.38;;
74957;SDS011;63741;42.624;26.276;2023-05-10T00:05:33;7.22;;;4.10;;
74957;SDS011;63741;42.624;26.276;2023-05-10T00:08:00;5.60;;;3.63;;
74957;SDS011;63741;42.624;26.276;2023-05-10T00:10:27;6.88;;;3.95;;
74957;SDS011;63741;42.624;26.276;2023-05-10T00:12:53;5.85;;;3.60;;
74957;SDS011;63741;42.624;26.276;2023-05-10T00:15:21;8.55;;;3.65;;
74957;SDS011;63741;42.624;26.276;2023-05-10T00:17:48;7.47;;;3.55;;
74957;SDS011;63741;42.624;26.276;2023-05-10T00:20:15;6.68;;;3.38;;
74957;SDS011;63741;42.624;26.276;2023-05-10T00:22:42;6.55;;;3.28;;
74957;SDS011;63741;42.624;26.276;2023-05-10T00:25:09;6.85;;;3.35;;
74957;SDS011;63741;42.624;26.276;2023-05-10T00:27:36;8.80;;;3.53;;
74957;SDS011;63741;42.624;26.276;2023-05-10T00:30:04;8.95;;;3.30;;
74957;SDS011;63741;42.624;26.276;2023-05-10T00:32:31;4.45;;;3.05;;
74957;SDS011;63741;42.624;26.276;2023-05-10T00:34:58;4.65;;;2.75;;
74957;SDS011;63741;42.624;26.276;2023-05-10T00:37:25;4.47;;;2.95;;
74957;SDS011;63741;42.624;26.276;2023-05-10T00:39:53;5.60;;;3.28;;
74957;SDS011;63741;42.624;26.276;2023-05-10T00:42:20;5.90;;;3.10;;
74957;SDS011;63741;42.624;26.276;2023-05-10T00:44:50;5.53;;;3.15;;
74957;SDS011;63741;42.624;26.276;2023-05-10T00:47:17;8.02;;;3.40;;
74957;SDS011;63741;42.624;26.276;2023-05-10T00:49:44;4.32;;;3.03;;
74957;SDS011;63741;42.624;26.276;2023-05-10T00:52:12;7.70;;;3.38;;
74957;SDS011;63741;42.624;26.276;2023-05-10T00:54:40;7.03;;;3.25;;
74957;SDS011;63741;42.624;26.276;2023-05-10T00:57:07;4.97;;;3.20;;
74957;SDS011;63741;42.624;26.276;2023-05-10T00:59:34;6.57;;;3.08;;
74957;SDS011;63741;42.624;26.276;2023-05-10T01:02:01;5.47;;;2.92;;
74957;SDS011;63741;42.624;26.276;2023-05-10T01:04:28;6.40;;;3.20;;
74957;SDS011;63741;42.624;26.276;2023-05-10T01:06:57;8.80;;;3.63;;
74957;SDS011;63741;42.624;26.276;2023-05-10T01:09:24;8.25;;;3.00;;
74957;SDS011;63741;42.624;26.276;2023-05-10T01:11:52;8.52;;;3.08;;
74957;SDS011;63741;42.624;26.276;2023-05-10T01:14:21;4.45;;;2.78;;
74957;SDS011;63741;42.624;26.276;2023-05-10T01:16:48;6.43;;;3.20;;
74957;SDS011;63741;42.624;26.276;2023-05-10T01:35:51;6.22;;;3.17;;
74957;SDS011;63741;42.624;26.276;2023-05-10T01:38:37;7.30;;;3.13;;
74957;SDS011;63741;42.624;26.276;2023-05-10T01:41:26;6.75;;;3.67;;
74957;SDS011;63741;42.624;26.276;2023-05-10T01:46:35;12.00;;;4.38;;
74957;SDS011;63741;42.624;26.276;2023-05-10T01:49:07;10.05;;;4.50;;
74957;SDS011;63741;42.624;26.276;2023-05-10T01:51:45;6.75;;;4.53;;
74957;SDS011;63741;42.624;26.276;2023-05-10T01:54:15;7.72;;;5.22;;
74957;SDS011;63741;42.624;26.276;2023-05-10T01:56:47;6.63;;;4.68;;
74957;SDS011;63741;42.624;26.276;2023-05-10T01:59:21;7.70;;;5.05;;
74957;SDS011;63741;42.624;26.276;2023-05-10T02:01:51;6.57;;;4.72;;
74957;SDS011;63741;42.624;26.276;2023-05-10T02:04:20;7.65;;;5.47;;
74957;SDS011;63741;42.624;26.276;2023-05-10T02:06:50;8.02;;;5.30;;
74957;SDS011;63741;42.624;26.276;2023-05-10T02:09:20;9.65;;;5.82;;
74957;SDS011;63741;42.624;26.276;2023-05-10T02:11:49;10.73;;;5.53;;
74957;SDS011;63741;42.624;26.276;2023-05-10T02:14:16;8.75;;;5.82;;
74957;SDS011;63741;42.624;26.276;2023-05-10T02:16:45;11.07;;;5.82;;
74957;SDS011;63741;42.624;26.276;2023-05-10T02:19:13;10.20;;;5.95;;
74957;SDS011;63741;42.624;26.276;2023-05-10T02:21:41;12.48;;;6.10;;
74957;SDS011;63741;42.624;26.276;2023-05-10T02:24:10;11.38;;;6.20;;
74957;SDS011;63741;42.624;26.276;2023-05-10T02:26:38;10.20;;;6.97;;
74957;SDS011;63741;42.624;26.276;2023-05-10T02:29:06;10.02;;;7.72;;
74957;SDS011;63741;42.624;26.276;2023-05-10T02:31:35;11.55;;;7.13;;
74957;SDS011;63741;42.624;26.276;2023-05-10T02:34:03;13.20;;;7.72;;
74957;SDS011;63741;42.624;26.276;2023-05-10T02:36:32;13.00;;;7.82;;
74957;SDS011;63741;42.624;26.276;2023-05-10T02:38:59;14.68;;;7.30;;
74957;SDS011;63741;42.624;26.276;2023-05-10T02:41:28;12.52;;;7.00;;
74957;SDS011;63741;42.624;26.276;2023-05-10T02:43:59;10.63;;;6.82;;
74957;SDS011;63741;42.624;26.276;2023-05-10T02:46:29;11.35;;;6.53;;
74957;SDS011;63741;42.624;26.276;2023-05-10T02:48:57;6.85;;;5.22;;
74957;SDS011;63741;42.624;26.276;2023-05-10T02:51:25;8.30;;;5.28;;
74957;SDS011;63741;42.624;26.276;2023-05-10T02:53:58;11.35;;;5.55;;
74957;SDS011;63741;42.624;26.276;2023-05-10T02:56:31;7.18;;;5.30;;
74957;SDS011;63741;42.624;26.276;2023-05-10T02:59:02;9.70;;;3.92;;
74957;SDS011;63741;42.624;26.276;2023-05-10T03:01:29;6.18;;;3.55;;
74957;SDS011;63741;42.624;26.276;2023-05-10T03:03:57;6.95;;;3.47;;
74957;SDS011;63741;42.624;26.276;2023-05-10T03:06:24;7.28;;;4.32;;
74957;SDS011;63741;42.624;26.276;2023-05-10T03:08:51;8.02;;;4.70;;
74957;SDS011;63741;42.624;26.276;2023-05-10T03:17:22;6.32;;;4.57;;
74957;SDS011;63741;42.624;26.276;2023-05-10T03:19:57;14.95;;;4.65;;
74957;SDS011;63741;42.624;26.276;2023-05-10T03:22:34;11.73;;;4.20;;
74957;SDS011;63741;42.624;26.276;2023-05-10T03:25:04;7.53;;;4.60;;
74957;SDS011;63741;42.624;26.276;2023-05-10T03:27:34;7.70;;;3.90;;
74957;SDS011;63741;42.624;26.276;2023-05-10T03:30:03;124.95;;;57.92;;
74957;SDS011;63741;42.624;26.276;2023-05-10T03:32:33;226.32;;;96.75;;
74957;SDS011;63741;42.624;26.276;2023-05-10T03:35:06;53.38;;;24.65;;
74957;SDS011;63741;42.624;26.276;2023-05-10T03:37:36;24.25;;;12.05;;
74957;SDS011;63741;42.624;26.276;2023-05-10T03:40:04;19.60;;;9.10;;
74957;SDS011;63741;42.624;26.276;2023-05-10T03:42:34;9.05;;;5.40;;
74957;SDS011;63741;42.624;26.276;2023-05-10T03:45:01;26.52;;;10.88;;
74957;SDS011;63741;42.624;26.276;2023-05-10T03:47:28;19.20;;;7.78;;
74957;SDS011;63741;42.624;26.276;2023-05-10T03:49:57;8.32;;;4.28;;
74957;SDS011;63741;42.624;26.276;2023-05-10T03:52:24;12.55;;;4.07;;
74957;SDS011;63741;42.624;26.276;2023-05-10T03:54:51;8.63;;;2.90;;
74957;SDS011;63741;42.624;26.276;2023-05-10T03:57:18;16.10;;;3.63;;
74957;SDS011;63741;42.624;26.276;2023-05-10T03:59:45;8.27;;;3.47;;
74957;SDS011;63741;42.624;26.276;2023-05-10T04:02:12;8.00;;;4.35;;
74957;SDS011;63741;42.624;26.276;2023-05-10T04:04:39;9.90;;;4.30;;
74957;SDS011;63741;42.624;26.276;2023-05-10T04:07:06;11.55;;;4.28;;
74957;SDS011;63741;42.624;26.276;2023-05-10T04:09:33;10.30;;;3.80;;
74957;SDS011;63741;42.624;26.276;2023-05-10T04:12:00;12.30;;;3.85;;
74957;SDS011;63741;42.624;26.276;2023-05-10T04:14:28;10.98;;;3.30;;
74957;SDS011;63741;42.624;26.276;2023-05-10T04:16:55;8.18;;;4.40;;
74957;SDS011;63741;42.624;26.276;2023-05-10T04:19:22;16.70;;;4.30;;
74957;SDS011;63741;42.624;26.276;2023-05-10T04:21:49;22.42;;;5.35;;
74957;SDS011;63741;42.624;26.276;2023-05-10T04:24:16;4.90;;;3.20;;
74957;SDS011;63741;42.624;26.276;2023-05-10T04:26:43;11.43;;;3.00;;
74957;SDS011;63741;42.624;26.276;2023-05-10T04:29:10;13.55;;;3.63;;
74957;SDS011;63741;42.624;26.276;2023-05-10T04:31:37;14.82;;;3.90;;
74957;SDS011;63741;42.624;26.276;2023-05-10T04:34:04;6.65;;;3.10;;
74957;SDS011;63741;42.624;26.276;2023-05-10T04:36:31;10.38;;;4.28;;
74957;SDS011;63741;42.624;26.276;2023-05-10T04:39:00;7.15;;;3.58;;
74957;SDS011;63741;42.624;26.276;2023-05-10T04:41:28;8.05;;;3.67;;
74957;SDS011;63741;42.624;26.276;2023-05-10T04:43:55;12.15;;;4.10;;
74957;SDS011;63741;42.624;26.276;2023-05-10T04:46:22;13.20;;;6.05;;
74957;SDS011;63741;42.624;26.276;2023-05-10T04:48:49;11.55;;;4.10;;
74957;SDS011;63741;42.624;26.276;2023-05-10T04:51:16;19.90;;;4.82;;
74957;SDS011;63741;42.624;26.276;2023-05-10T04:53:43;6.78;;;2.78;;
74957;SDS011;63741;42.624;26.276;2023-05-10T04:56:23;6.25;;;3.78;;
74957;SDS011;63741;42.624;26.276;2023-05-10T04:58:49;10.65;;;4.22;;
74957;SDS011;63741;42.624;26.276;2023-05-10T05:01:16;11.40;;;3.72;;
74957;SDS011;63741;42.624;26.276;2023-05-10T05:03:43;15.02;;;5.20;;
74957;SDS011;63741;42.624;26.276;2023-05-10T05:06:10;8.82;;;3.13;;
74957;SDS011;63741;42.624;26.276;2023-05-10T05:08:37;7.32;;;3.42;;
74957;SDS011;63741;42.624;26.276;2023-05-10T05:11:04;10.13;;;3.75;;
74957;SDS011;63741;42.624;26.276;2023-05-10T05:13:31;12.20;;;3.58;;
74957;SDS011;63741;42.624;26.276;2023-05-10T05:15:59;7.53;;;3.25;;
74957;SDS011;63741;42.624;26.276;2023-05-10T05:18:27;12.00;;;3.22;;
74957;SDS011;63741;42.624;26.276;2023-05-10T05:20:54;9.30;;;3.05;;
74957;SDS011;63741;42.624;26.276;2023-05-10T05:23:21;10.20;;;2.92;;
74957;SDS011;63741;42.624;26.276;2023-05-10T05:25:51;7.70;;;2.92;;
74957;SDS011;63741;42.624;26.276;2023-05-10T05:28:19;9.48;;;2.78;;
74957;SDS011;63741;42.624;26.276;2023-05-10T05:30:46;10.10;;;3.28;;
74957;SDS011;63741;42.624;26.276;2023-05-10T05:33:14;17.55;;;3.95;;
74957;SDS011;63741;42.624;26.276;2023-05-10T05:35:41;19.55;;;6.28;;
74957;SDS011;63741;42.624;26.276;2023-05-10T05:40:40;10.23;;;3.58;;
74957;SDS011;63741;42.624;26.276;2023-05-10T05:43:07;5.15;;;3.10;;
74957;SDS011;63741;42.624;26.276;2023-05-10T05:45:34;10.75;;;3.55;;
74957;SDS011;63741;42.624;26.276;2023-05-10T05:48:01;5.13;;;3.10;;
74957;SDS011;63741;42.624;26.276;2023-05-10T05:50:28;5.15;;;3.13;;
74957;SDS011;63741;42.624;26.276;2023-05-10T05:52:55;9.18;;;3.80;;
74957;SDS011;63741;42.624;26.276;2023-05-10T05:55:22;8.07;;;3.60;;
74957;SDS011;63741;42.624;26.276;2023-05-10T05:57:50;6.05;;;3.13;;
74957;SDS011;63741;42.624;26.276;2023-05-10T06:00:17;4.53;;;2.30;;
74957;SDS011;63741;42.624;26.276;2023-05-10T06:02:44;4.72;;;2.28;;
74957;SDS011;63741;42.624;26.276;2023-05-10T06:05:11;6.90;;;2.22;;
74957;SDS011;63741;42.624;26.276;2023-05-10T06:07:40;5.03;;;2.70;;
74957;SDS011;63741;42.624;26.276;2023-05-10T06:10:08;2.90;;;2.22;;
74957;SDS011;63741;42.624;26.276;2023-05-10T06:12:36;8.38;;;2.28;;
74957;SDS011;63741;42.624;26.276;2023-05-10T06:15:03;4.43;;;2.20;;
74957;SDS011;63741;42.624;26.276;2023-05-10T06:17:30;4.22;;;2.25;;
74957;SDS011;63741;42.624;26.276;2023-05-10T06:19:57;5.00;;;2.20;;
74957;SDS011;63741;42.624;26.276;2023-05-10T06:22:24;7.60;;;2.60;;
74957;SDS011;63741;42.624;26.276;2023-05-10T06:24:51;6.00;;;2.30;;
74957;SDS011;63741;42.624;26.276;2023-05-10T06:27:18;6.68;;;2.50;;
74957;SDS011;63741;42.624;26.276;2023-05-10T06:29:45;4.43;;;2.45;;
74957;SDS011;63741;42.624;26.276;2023-05-10T06:32:11;4.15;;;2.17;;
74957;SDS011;63741;42.624;26.276;2023-05-10T06:34:38;5.15;;;2.20;;
74957;SDS011;63741;42.624;26.276;2023-05-10T06:37:05;6.22;;;2.13;;
74957;SDS011;63741;42.624;26.276;2023-05-10T06:39:32;5.45;;;2.50;;
74957;SDS011;63741;42.624;26.276;2023-05-10T06:41:59;5.28;;;2.00;;
74957;SDS011;63741;42.624;26.276;2023-05-10T06:44:31;6.05;;;2.17;;
74957;SDS011;63741;42.624;26.276;2023-05-10T06:46:58;5.63;;;2.40;;
74957;SDS011;63741;42.624;26.276;2023-05-10T06:49:25;5.28;;;2.50;;
74957;SDS011;63741;42.624;26.276;2023-05-10T06:51:52;3.38;;;2.00;;
74957;SDS011;63741;42.624;26.276;2023-05-10T06:54:19;5.32;;;2.05;;
74957;SDS011;63741;42.624;26.276;2023-05-10T06:56:45;3.40;;;2.28;;
74957;SDS011;63741;42.624;26.276;2023-05-10T06:59:12;11.90;;;2.40;;
74957;SDS011;63741;42.624;26.276;2023-05-10T07:01:40;4.65;;;2.10;;
74957;SDS011;63741;42.624;26.276;2023-05-10T07:04:07;11.25;;;2.45;;
74957;SDS011;63741;42.624;26.276;2023-05-10T07:06:34;4.20;;;2.05;;
74957;SDS011;63741;42.624;26.276;2023-05-10T07:09:01;7.38;;;3.22;;
74957;SDS011;63741;42.624;26.276;2023-05-10T07:11:28;4.65;;;2.90;;
74957;SDS011;63741;42.624;26.276;2023-05-10T07:13:55;4.60;;;2.40;;
74957;SDS011;63741;42.624;26.276;2023-05-10T07:16:21;14.75;;;6.80;;
74957;SDS011;63741;42.624;26.276;2023-05-10T07:18:49;11.82;;;6.43;;
74957;SDS011;63741;42.624;26.276;2023-05-10T07:21:17;7.35;;;3.63;;
74957;SDS011;63741;42.624;26.276;2023-05-10T07:23:44;4.00;;;2.20;;
74957;SDS011;63741;42.624;26.276;2023-05-10T07:26:10;4.85;;;1.80;;
74957;SDS011;63741;42.624;26.276;2023-05-10T07:28:38;5.50;;;1.85;;
74957;SDS011;63741;42.624;26.276;2023-05-10T07:31:05;3.33;;;1.90;;
74957;SDS011;63741;42.624;26.276;2023-05-10T07:33:32;2.85;;;1.80;;
74957;SDS011;63741;42.624;26.276;2023-05-10T07:35:59;4.65;;;1.98;;
74957;SDS011;63741;42.624;26.276;2023-05-10T07:38:26;3.88;;;2.08;;
74957;SDS011;63741;42.624;26.276;2023-05-10T07:40:53;4.32;;;1.90;;
74957;SDS011;63741;42.624;26.276;2023-05-10T07:43:20;3.08;;;2.00;;
74957;SDS011;63741;42.624;26.276;2023-05-10T07:45:46;3.92;;;2.00;;
74957;SDS011;63741;42.624;26.276;2023-05-10T07:48:13;6.28;;;2.22;;
74957;SDS011;63741;42.624;26.276;2023-05-10T07:50:40;4.40;;;2.05;;
74957;SDS011;63741;42.624;26.276;2023-05-10T07:53:07;5.05;;;1.70;;
74957;SDS011;63741;42.624;26.276;2023-05-10T07:55:34;4.28;;;1.83;;
74957;SDS011;63741;42.624;26.276;2023-05-10T07:58:01;4.35;;;1.80;;
74957;SDS011;63741;42.624;26.276;2023-05-10T08:00:29;19.25;;;2.80;;
74957;SDS011;63741;42.624;26.276;2023-05-10T08:02:56;5.47;;;2.00;;
74957;SDS011;63741;42.624;26.276;2023-05-10T08:05:23;5.10;;;2.20;;
74957;SDS011;63741;42.624;26.276;2023-05-10T08:07:50;5.75;;;2.03;;
74957;SDS011;63741;42.624;26.276;2023-05-10T08:10:17;4.80;;;1.70;;
74957;SDS011;63741;42.624;26.276;2023-05-10T08:12:43;6.03;;;1.80;;
74957;SDS011;63741;42.624;26.276;2023-05-10T08:15:11;4.40;;;1.70;;
74957;SDS011;63741;42.624;26.276;2023-05-10T08:17:37;3.13;;;1.58;;
74957;SDS011;63741;42.624;26.276;2023-05-10T08:20:05;5.97;;;1.75;;
74957;SDS011;63741;42.624;26.276;2023-05-10T08:22:32;3.15;;;1.60;;
74957;SDS011;63741;42.624;26.276;2023-05-10T08:24:59;4.72;;;1.90;;
74957;SDS011;63741;42.624;26.276;2023-05-10T08:27:26;3.55;;;1.83;;
74957;SDS011;63741;42.624;26.276;2023-05-10T08:29:52;3.88;;;2.10;;
74957;SDS011;63741;42.624;26.276;2023-05-10T08:32:19;3.08;;;1.60;;
74957;SDS011;63741;42.624;26.276;2023-05-10T08:34:46;4.80;;;1.65;;
74957;SDS011;63741;42.624;26.276;2023-05-10T08:37:13;3.47;;;1.70;;
74957;SDS011;63741;42.624;26.276;2023-05-10T08:39:40;3.00;;;1.70;;
74957;SDS011;63741;42.624;26.276;2023-05-10T08:42:07;3.88;;;1.70;;
74957;SDS011;63741;42.624;26.276;2023-05-10T08:44:36;4.68;;;1.80;;
74957;SDS011;63741;42.624;26.276;2023-05-10T08:47:06;4.30;;;2.00;;
74957;SDS011;63741;42.624;26.276;2023-05-10T08:49:35;4.35;;;1.88;;
74957;SDS011;63741;42.624;26.276;2023-05-10T08:52:04;3.05;;;1.70;;
74957;SDS011;63741;42.624;26.276;2023-05-10T08:54:32;5.63;;;1.88;;
74957;SDS011;63741;42.624;26.276;2023-05-10T08:57:00;9.48;;;2.67;;
74957;SDS011;63741;42.624;26.276;2023-05-10T08:59:27;3.42;;;1.80;;
74957;SDS011;63741;42.624;26.276;2023-05-10T09:01:55;10.18;;;1.83;;
74957;SDS011;63741;42.624;26.276;2023-05-10T09:04:24;6.32;;;2.60;;
74957;SDS011;63741;42.624;26.276;2023-05-10T09:06:52;6.32;;;3.35;;
74957;SDS011;63741;42.624;26.276;2023-05-10T09:09:20;6.07;;;2.00;;
74957;SDS011;63741;42.624;26.276;2023-05-10T09:11:48;3.15;;;1.50;;
74957;SDS011;63741;42.624;26.276;2023-05-10T09:14:15;3.92;;;1.52;;
74957;SDS011;63741;42.624;26.276;2023-05-10T09:16:43;4.53;;;1.92;;
74957;SDS011;63741;42.624;26.276;2023-05-10T09:19:11;2.53;;;1.80;;
74957;SDS011;63741;42.624;26.276;2023-05-10T09:21:38;3.08;;;1.55;;
74957;SDS011;63741;42.624;26.276;2023-05-10T09:24:05;3.13;;;1.40;;
74957;SDS011;63741;42.624;26.276;2023-05-10T09:26:33;3.40;;;1.60;;
74957;SDS011;63741;42.624;26.276;2023-05-10T09:29:02;3.40;;;1.70;;
74957;SDS011;63741;42.624;26.276;2023-05-10T09:31:49;3.97;;;1.55;;
74957;SDS011;63741;42.624;26.276;2023-05-10T09:34:29;2.72;;;1.60;;
74957;SDS011;63741;42.624;26.276;2023-05-10T09:36:58;4.75;;;1.80;;
74957;SDS011;63741;42.624;26.276;2023-05-10T09:39:33;3.30;;;2.30;;
74957;SDS011;63741;42.624;26.276;2023-05-10T09:42:02;5.25;;;1.92;;
74957;SDS011;63741;42.624;26.276;2023-05-10T09:44:32;5.38;;;2.00;;
74957;SDS011;63741;42.624;26.276;2023-05-10T09:47:00;3.10;;;2.17;;
74957;SDS011;63741;42.624;26.276;2023-05-10T09:49:29;3.10;;;1.90;;
74957;SDS011;63741;42.624;26.276;2023-05-10T09:52:06;5.68;;;2.17;;
74957;SDS011;63741;42.624;26.276;2023-05-10T09:54:34;2.90;;;1.73;;
74957;SDS011;63741;42.624;26.276;2023-05-10T09:57:02;3.42;;;2.10;;
74957;SDS011;63741;42.624;26.276;2023-05-10T09:59:29;2.97;;;1.75;;
74957;SDS011;63741;42.624;26.276;2023-05-10T10:01:59;4.47;;;1.85;;
74957;SDS011;63741;42.624;26.276;2023-05-10T10:04:27;5.43;;;2.30;;
74957;SDS011;63741;42.624;26.276;2023-05-10T10:07:02;3.67;;;2.00;;
74957;SDS011;63741;42.624;26.276;2023-05-10T10:09:30;3.17;;;2.20;;
74957;SDS011;63741;42.624;26.276;2023-05-10T10:11:59;3.85;;;1.75;;
74957;SDS011;63741;42.624;26.276;2023-05-10T10:14:31;3.17;;;1.80;;
74957;SDS011;63741;42.624;26.276;2023-05-10T10:16:58;2.33;;;1.42;;
74957;SDS011;63741;42.624;26.276;2023-05-10T10:19:30;3.33;;;1.88;;
74957;SDS011;63741;42.624;26.276;2023-05-10T10:22:02;6.70;;;1.60;;
74957;SDS011;63741;42.624;26.276;2023-05-10T10:24:29;2.50;;;1.60;;
74957;SDS011;63741;42.624;26.276;2023-05-10T10:26:57;2.65;;;1.80;;
74957;SDS011;63741;42.624;26.276;2023-05-10T10:29:36;2.75;;;1.73;;
74957;SDS011;63741;42.624;26.276;2023-05-10T10:32:25;4.35;;;1.70;;
74957;SDS011;63741;42.624;26.276;2023-05-10T10:34:59;7.43;;;2.08;;
74957;SDS011;63741;42.624;26.276;2023-05-10T10:37:47;3.95;;;1.90;;
74957;SDS011;63741;42.624;26.276;2023-05-10T10:40:34;6.07;;;1.70;;
74957;SDS011;63741;42.624;26.276;2023-05-10T10:48:41;2.60;;;1.60;;
74957;SDS011;63741;42.624;26.276;2023-05-10T10:51:13;3.03;;;1.90;;
74957;SDS011;63741;42.624;26.276;2023-05-10T10:53:40;6.40;;;1.85;;
74957;SDS011;63741;42.624;26.276;2023-05-10T10:56:08;19.58;;;2.35;;
74957;SDS011;63741;42.624;26.276;2023-05-10T10:58:42;3.10;;;1.60;;
74957;SDS011;63741;42.624;26.276;2023-05-10T11:01:18;4.75;;;2.00;;
74957;SDS011;63741;42.624;26.276;2023-05-10T11:06:30;2.28;;;1.60;;
74957;SDS011;63741;42.624;26.276;2023-05-10T11:08:59;4.35;;;1.77;;
74957;SDS011;63741;42.624;26.276;2023-05-10T11:11:35;4.30;;;1.90;;
74957;SDS011;63741;42.624;26.276;2023-05-10T11:14:14;2.30;;;1.70;;
74957;SDS011;63741;42.624;26.276;2023-05-10T11:16:47;4.43;;;1.98;;
74957;SDS011;63741;42.624;26.276;2023-05-10T11:19:15;2.65;;;1.90;;
74957;SDS011;63741;42.624;26.276;2023-05-10T11:21:49;4.90;;;2.10;;
74957;SDS011;63741;42.624;26.276;2023-05-10T11:24:21;3.40;;;2.10;;
74957;SDS011;63741;42.624;26.276;2023-05-10T11:26:52;3.63;;;2.00;;
74957;SDS011;63741;42.624;26.276;2023-05-10T11:29:20;2.80;;;1.92;;
74957;SDS011;63741;42.624;26.276;2023-05-10T11:31:47;3.80;;;1.90;;
74957;SDS011;63741;42.624;26.276;2023-05-10T11:34:25;8.32;;;2.00;;
74957;SDS011;63741;42.624;26.276;2023-05-10T11:36:57;3.35;;;2.00;;
74957;SDS011;63741;42.624;26.276;2023-05-10T11:39:28;5.25;;;2.08;;
74957;SDS011;63741;42.624;26.276;2023-05-10T11:41:56;4.40;;;2.28;;
74957;SDS011;63741;42.624;26.276;2023-05-10T11:44:28;3.10;;;1.98;;
74957;SDS011;63741;42.624;26.276;2023-05-10T11:47:00;4.68;;;2.17;;
74957;SDS011;63741;42.624;26.276;2023-05-10T11:49:28;4.65;;;2.30;;
74957;SDS011;63741;42.624;26.276;2023-05-10T11:52:13;4.43;;;2.13;;
74957;SDS011;63741;42.624;26.276;2023-05-10T11:54:52;3.30;;;2.20;;
74957;SDS011;63741;42.624;26.276;2023-05-10T11:57:25;4.38;;;1.88;;
74957;SDS011;63741;42.624;26.276;2023-05-10T11:59:53;8.52;;;2.22;;
74957;SDS011;63741;42.624;26.276;2023-05-10T12:02:21;2.88;;;1.98;;
74957;SDS011;63741;42.624;26.276;2023-05-10T12:04:49;3.45;;;1.83;;
74957;SDS011;63741;42.624;26.276;2023-05-10T12:07:17;3.75;;;2.10;;
74957;SDS011;63741;42.624;26.276;2023-05-10T12:09:44;4.15;;;1.70;;
74957;SDS011;63741;42.624;26.276;2023-05-10T12:12:17;5.97;;;1.85;;
74957;SDS011;63741;42.624;26.276;2023-05-10T12:14:47;3.75;;;1.80;;
74957;SDS011;63741;42.624;26.276;2023-05-10T12:17:16;5.63;;;2.00;;
74957;SDS011;63741;42.624;26.276;2023-05-10T12:19:43;6.50;;;2.03;;
74957;SDS011;63741;42.624;26.276;2023-05-10T12:22:10;4.07;;;1.80;;
74957;SDS011;63741;42.624;26.276;2023-05-10T12:24:37;2.55;;;1.70;;
74957;SDS011;63741;42.624;26.276;2023-05-10T12:27:09;6.30;;;2.00;;
74957;SDS011;63741;42.624;26.276;2023-05-10T12:29:36;3.13;;;2.00;;
74957;SDS011;63741;42.624;26.276;2023-05-10T12:32:10;4.20;;;1.90;;
74957;SDS011;63741;42.624;26.276;2023-05-10T12:34:37;3.90;;;2.03;;
74957;SDS011;63741;42.624;26.276;2023-05-10T12:37:05;4.82;;;1.70;;
74957;SDS011;63741;42.624;26.276;2023-05-10T12:39:41;6.20;;;1.80;;
74957;SDS011;63741;42.624;26.276;2023-05-10T12:42:09;4.38;;;1.60;;
74957;SDS011;63741;42.624;26.276;2023-05-10T12:44:37;5.55;;;1.85;;
74957;SDS011;63741;42.624;26.276;2023-05-10T12:47:03;3.80;;;1.70;;
74957;SDS011;63741;42.624;26.276;2023-05-10T12:49:30;2.75;;;1.60;;
74957;SDS011;63741;42.624;26.276;2023-05-10T12:51:57;5.35;;;1.73;;
74957;SDS011;63741;42.624;26.276;2023-05-10T12:54:24;2.55;;;1.73;;
74957;SDS011;63741;42.624;26.276;2023-05-10T12:56:51;3.28;;;1.75;;
74957;SDS011;63741;42.624;26.276;2023-05-10T12:59:18;4.32;;;2.05;;
74957;SDS011;63741;42.624;26.276;2023-05-10T13:01:45;4.53;;;2.03;;
74957;SDS011;63741;42.624;26.276;2023-05-10T13:04:12;5.00;;;2.00;;
74957;SDS011;63741;42.624;26.276;2023-05-10T13:06:39;9.95;;;2.03;;
74957;SDS011;63741;42.624;26.276;2023-05-10T13:09:06;2.95;;;1.80;;
74957;SDS011;63741;42.624;26.276;2023-05-10T13:11:33;4.43;;;1.70;;
74957;SDS011;63741;42.624;26.276;2023-05-10T13:14:00;3.65;;;2.00;;
74957;SDS011;63741;42.624;26.276;2023-05-10T13:16:27;2.28;;;1.70;;
74957;SDS011;63741;42.624;26.276;2023-05-10T13:18:53;3.13;;;1.92;;
74957;SDS011;63741;42.624;26.276;2023-05-10T13:21:20;6.80;;;1.80;;
74957;SDS011;63741;42.624;26.276;2023-05-10T13:23:47;5.20;;;2.05;;
74957;SDS011;63741;42.624;26.276;2023-05-10T13:26:14;5.95;;;1.90;;
74957;SDS011;63741;42.624;26.276;2023-05-10T13:28:41;3.58;;;1.92;;
74957;SDS011;63741;42.624;26.276;2023-05-10T13:31:08;5.13;;;2.05;;
74957;SDS011;63741;42.624;26.276;2023-05-10T13:33:35;5.95;;;1.90;;
74957;SDS011;63741;42.624;26.276;2023-05-10T13:36:02;3.78;;;2.20;;
74957;SDS011;63741;42.624;26.276;2023-05-10T13:38:29;6.82;;;2.28;;
74957;SDS011;63741;42.624;26.276;2023-05-10T13:40:56;15.63;;;2.10;;
74957;SDS011;63741;42.624;26.276;2023-05-10T13:43:23;6.07;;;2.40;;
74957;SDS011;63741;42.624;26.276;2023-05-10T13:45:50;4.68;;;2.00;;
74957;SDS011;63741;42.624;26.276;2023-05-10T13:48:17;2.85;;;1.88;;
74957;SDS011;63741;42.624;26.276;2023-05-10T13:50:44;5.80;;;1.90;;
74957;SDS011;63741;42.624;26.276;2023-05-10T13:53:11;4.10;;;2.00;;
74957;SDS011;63741;42.624;26.276;2023-05-10T13:59:03;6.55;;;2.10;;
74957;SDS011;63741;42.624;26.276;2023-05-10T14:01:30;8.88;;;2.50;;
74957;SDS011;63741;42.624;26.276;2023-05-10T14:03:57;4.15;;;2.10;;
74957;SDS011;63741;42.624;26.276;2023-05-10T14:06:24;3.45;;;2.05;;
74957;SDS011;63741;42.624;26.276;2023-05-10T14:08:51;6.15;;;2.50;;
74957;SDS011;63741;42.624;26.276;2023-05-10T14:11:18;4.30;;;2.50;;
74957;SDS011;63741;42.624;26.276;2023-05-10T14:13:49;4.55;;;2.30;;
74957;SDS011;63741;42.624;26.276;2023-05-10T14:16:16;7.20;;;3.35;;
74957;SDS011;63741;42.624;26.276;2023-05-10T14:18:42;4.22;;;2.30;;
74957;SDS011;63741;42.624;26.276;2023-05-10T14:21:09;6.53;;;2.83;;
74957;SDS011;63741;42.624;26.276;2023-05-10T14:23:36;4.88;;;2.08;;
74957;SDS011;63741;42.624;26.276;2023-05-10T14:26:03;5.00;;;2.40;;
74957;SDS011;63741;42.624;26.276;2023-05-10T14:28:30;3.78;;;2.40;;
74957;SDS011;63741;42.624;26.276;2023-05-10T14:30:57;4.68;;;2.20;;
74957;SDS011;63741;42.624;26.276;2023-05-10T14:33:25;5.75;;;2.17;;
74957;SDS011;63741;42.624;26.276;2023-05-10T14:35:53;5.18;;;2.05;;
74957;SDS011;63741;42.624;26.276;2023-05-10T14:38:21;4.35;;;2.13;;
74957;SDS011;63741;42.624;26.276;2023-05-10T14:40:48;5.93;;;2.10;;
74957;SDS011;63741;42.624;26.276;2023-05-10T14:43:14;6.43;;;2.72;;
74957;SDS011;63741;42.624;26.276;2023-05-10T14:45:41;7.28;;;2.30;;
74957;SDS011;63741;42.624;26.276;2023-05-10T14:48:08;4.35;;;2.38;;
74957;SDS011;63741;42.624;26.276;2023-05-10T14:50:38;11.25;;;2.08;;
74957;SDS011;63741;42.624;26.276;2023-05-10T14:56:03;3.42;;;1.98;;
74957;SDS011;63741;42.624;26.276;2023-05-10T14:58:30;4.30;;;2.15;;
74957;SDS011;63741;42.624;26.276;2023-05-10T15:00:59;5.70;;;1.88;;
74957;SDS011;63741;42.624;26.276;2023-05-10T15:03:27;6.13;;;2.20;;
74957;SDS011;63741;42.624;26.276;2023-05-10T15:05:55;8.55;;;2.60;;
74957;SDS011;63741;42.624;26.276;2023-05-10T15:08:24;4.50;;;2.20;;
74957;SDS011;63741;42.624;26.276;2023-05-10T15:10:54;4.82;;;2.33;;
74957;SDS011;63741;42.624;26.276;2023-05-10T15:13:22;3.88;;;2.60;;
74957;SDS011;63741;42.624;26.276;2023-05-10T15:15:49;3.40;;;2.40;;
74957;SDS011;63741;42.624;26.276;2023-05-10T15:18:16;3.75;;;2.30;;
74957;SDS011;63741;42.624;26.276;2023-05-10T15:20:43;4.53;;;2.08;;